Time;durP1;ratioP1;P1;durP2;ratioP2;P2;SDS_P1;SDS_P2;PMS_P1;PMS_P2;Temp;Humidity;BMP_temperature;BMP_pressure;BME280_temperature;BME280_humidity;BME280_pressure;Samples;Min_cycle;Max_cycle;Signal;HPM_P1;HPM_P2
2022/02/09 00:07:42;;;;;;;;;29.00;21.75;;;;;9.68;61.31;102522.06;5039801;28;45524;-44
2022/02/09 00:10:08;;;;;;;;;25.50;19.25;;;;;9.66;61.53;102521.16;5038946;28;45456;-46
2022/02/09 00:17:51;;;;;;;;;24.50;22.00;;;;;9.60;61.29;102508.81;5040111;28;45445;-48
2022/02/09 00:34:03;;;;;;;;;27.25;20.50;;;;;9.46;61.33;102490.19;5039740;28;45351;-44
2022/02/09 01:12:00;;;;;;;;;21.00;18.25;;;;;9.21;61.34;102470.50;5037272;28;45502;-47
2022/02/09 01:39:32;;;;;;;;;23.75;22.75;;;;;9.07;61.64;102480.72;5034682;28;45250;-47
2022/02/09 01:51:00;;;;;;;;;23.75;23.00;;;;;9.02;61.76;102478.00;5038656;28;45991;-46
2022/02/09 01:55:40;;;;;;;;;26.50;23.50;;;;;8.93;61.62;102468.19;5038719;28;45338;-46
2022/02/09 01:58:06;;;;;;;;;23.75;20.75;;;;;8.90;61.53;102467.25;5038363;28;45592;-47
2022/02/09 02:00:31;;;;;;;;;22.00;19.25;;;;;8.90;61.53;102469.88;5054400;28;45405;-46
2022/02/09 02:02:57;;;;;;;;;27.75;24.00;;;;;8.88;61.45;102474.19;5038526;28;45479;-48
2022/02/09 02:05:22;;;;;;;;;21.25;19.50;;;;;8.87;61.92;102464.59;5038835;28;45384;-45
2022/02/09 02:10:15;;;;;;;;;21.25;18.75;;;;;8.83;61.70;102457.47;5038613;28;45922;-49
2022/02/09 02:18:19;;;;;;;;;24.00;23.75;;;;;8.74;61.58;102455.56;5038633;28;45450;-47
2022/02/09 02:26:06;;;;;;;;;23.00;21.25;;;;;8.72;61.74;102458.16;5038068;28;45899;-46
2022/02/09 02:28:51;;;;;;;;;25.50;22.75;;;;;8.70;61.55;102449.34;5042110;28;45435;-45
2022/02/09 02:39:12;;;;;;;;;27.75;25.00;;;;;8.63;61.74;102426.53;5039945;28;45197;-45
2022/02/09 03:14:17;;;;;;;;;29.00;23.50;;;;;8.39;61.40;102385.81;5041532;28;45593;-47
2022/02/09 03:16:52;;;;;;;;;25.75;22.00;;;;;8.38;61.71;102375.31;5041168;28;45236;-48
2022/02/09 03:24:16;;;;;;;;;21.75;20.75;;;;;8.35;61.42;102367.38;5039213;28;45598;-48
2022/02/09 03:27:04;;;;;;;;;27.50;25.50;;;;;8.34;61.81;102357.72;5040827;28;45506;-44
2022/02/09 03:58:23;;;;;;;;;24.75;21.50;;;;;8.13;61.71;102325.88;5035643;28;45438;-49
2022/02/09 04:00:48;;;;;;;;;20.50;17.25;;;;;8.10;61.67;102317.97;5040206;28;45400;-45
2022/02/09 04:03:18;;;;;;;;;28.50;27.00;;;;;8.11;61.35;102319.75;5040765;28;45268;-45
2022/02/09 04:05:47;;;;;;;;;25.75;23.25;;;;;8.11;61.64;102321.47;5040402;28;45332;-46
2022/02/09 04:08:15;;;;;;;;;28.25;22.25;;;;;8.09;61.43;102316.22;5040111;28;45299;-45
2022/02/09 04:10:46;;;;;;;;;36.50;31.00;;;;;8.08;61.57;102311.81;5039817;28;46580;-44
2022/02/09 04:16:32;;;;;;;;;29.75;25.25;;;;;8.08;61.46;102308.31;5028267;28;45432;-45
2022/02/09 04:48:31;;;;;;;;;25.25;21.00;;;;;7.86;61.16;102309.59;5039144;28;45272;-44
2022/02/09 04:51:15;;;;;;;;;31.00;26.00;;;;;7.83;61.48;102310.41;5039440;28;45526;-49
2022/02/09 04:56:39;;;;;;;;;25.75;22.75;;;;;7.78;61.43;102304.19;5039782;28;45248;-45
2022/02/09 05:04:54;;;;;;;;;25.50;22.25;;;;;7.72;61.32;102307.56;5016324;28;45489;-46
2022/02/09 05:23:44;;;;;;;;;25.25;23.75;;;;;7.61;61.45;102319.47;5037685;28;45413;-45
2022/02/09 05:28:55;;;;;;;;;30.50;24.25;;;;;7.59;61.28;102322.06;5027339;28;45308;-44
2022/02/09 05:31:20;;;;;;;;;26.75;23.50;;;;;7.59;61.47;102326.44;5054806;28;45300;-45
2022/02/09 05:33:47;;;;;;;;;24.25;21.75;;;;;7.58;61.58;102327.28;5038855;28;45315;-46
2022/02/09 05:36:12;;;;;;;;;28.50;24.00;;;;;7.56;61.57;102327.25;5039280;28;46166;-45
2022/02/09 05:38:37;;;;;;;;;34.75;23.25;;;;;7.56;61.74;102332.47;5038406;28;45360;-45
2022/02/09 05:41:03;;;;;;;;;25.00;24.50;;;;;7.55;61.25;102328.09;5039218;28;45301;-45
2022/02/09 05:43:28;;;;;;;;;29.50;22.00;;;;;7.54;61.38;102325.44;5038901;28;46470;-44
2022/02/09 05:54:24;;;;;;;;;23.25;19.00;;;;;7.48;61.40;102314.00;5038796;28;45232;-45
2022/02/09 05:56:41;;;;;;;;;29.25;27.25;;;;;7.49;60.99;102314.84;5033029;28;46746;-44
2022/02/09 06:01:35;;;;;;;;;25.50;20.50;;;;;7.44;61.39;102316.50;5038781;28;45313;-45
2022/02/09 06:04:01;;;;;;;;;25.25;24.00;;;;;7.43;61.36;102322.56;5038805;28;45495;-45
2022/02/09 06:06:26;;;;;;;;;27.50;26.00;;;;;7.40;61.50;102319.88;5037318;28;46535;-47
2022/02/09 06:08:52;;;;;;;;;29.50;24.75;;;;;7.41;61.31;102327.75;5036923;28;45803;-45
2022/02/09 06:11:27;;;;;;;;;35.50;28.50;;;;;7.39;61.48;102329.44;5038769;28;45362;-45
2022/02/09 06:14:10;;;;;;;;;30.25;26.00;;;;;7.36;61.30;102328.47;5038403;28;45413;-46
2022/02/09 06:21:56;;;;;;;;;36.00;28.50;;;;;7.33;61.30;102339.75;5038174;28;45453;-45
2022/02/09 06:24:21;;;;;;;;;39.00;34.00;;;;;7.30;61.31;102331.84;5036795;28;45559;-48
2022/02/09 06:26:47;;;;;;;;;35.50;31.50;;;;;7.32;61.26;102335.41;5041345;28;46866;-47
2022/02/09 06:29:13;;;;;;;;;29.50;26.50;;;;;7.29;61.42;102330.94;5038586;28;45388;-45
2022/02/09 06:31:39;;;;;;;;;28.25;28.25;;;;;7.29;61.30;102338.78;5038130;28;45294;-48
2022/02/09 06:34:05;;;;;;;;;31.00;30.25;;;;;7.28;61.41;102330.91;5054077;28;45765;-48
2022/02/09 06:36:38;;;;;;;;;30.75;28.75;;;;;7.26;61.22;102332.63;5038379;28;46975;-46
2022/02/09 06:39:06;;;;;;;;;32.75;30.75;;;;;7.25;61.42;102336.09;5030139;28;45227;-44
2022/02/09 06:41:32;;;;;;;;;30.75;25.25;;;;;7.25;61.37;102336.09;5037104;28;45617;-46
2022/02/09 06:43:57;;;;;;;;;27.75;26.00;;;;;7.22;61.28;102331.66;5037887;28;45477;-47
2022/02/09 06:46:24;;;;;;;;;34.25;31.00;;;;;7.20;61.50;102329.84;5038158;28;46153;-45
2022/02/09 06:48:49;;;;;;;;;38.50;32.00;;;;;7.20;61.31;102333.34;5038230;28;45459;-44
2022/02/09 06:51:19;;;;;;;;;27.75;24.75;;;;;7.19;61.45;102330.69;5038152;28;45499;-46
2022/02/09 06:54:12;;;;;;;;;29.75;24.00;;;;;7.18;61.30;102337.63;5037886;28;45323;-49
2022/02/09 07:01:36;;;;;;;;;26.50;26.50;;;;;7.13;61.41;102329.69;5037827;28;45541;-45
2022/02/09 07:04:02;;;;;;;;;26.00;23.75;;;;;7.12;61.35;102329.66;5037988;28;45473;-48
2022/02/09 07:06:27;;;;;;;;;31.75;27.75;;;;;7.08;61.51;102333.94;5038002;28;46333;-49
2022/02/09 07:08:53;;;;;;;;;30.00;23.00;;;;;7.10;61.66;102340.06;5037189;28;45263;-44
2022/02/09 07:11:18;;;;;;;;;29.00;26.50;;;;;7.07;61.34;102334.75;5038212;28;45180;-47
2022/02/09 07:13:43;;;;;;;;;29.50;26.25;;;;;7.07;61.56;102340.00;5041108;28;45427;-45
2022/02/09 07:16:09;;;;;;;;;29.75;28.00;;;;;7.06;61.50;102338.22;5041196;28;45970;-48
2022/02/09 07:18:36;;;;;;;;;33.00;31.00;;;;;7.06;61.54;102335.59;5041309;28;45242;-49
2022/02/09 07:21:07;;;;;;;;;29.50;25.00;;;;;7.04;61.46;102339.91;5041349;28;45324;-49
2022/02/09 07:23:42;;;;;;;;;31.75;31.00;;;;;7.04;61.52;102337.28;5039461;28;45299;-49
2022/02/09 07:26:19;;;;;;;;;31.25;27.50;;;;;7.03;61.59;102343.38;5040991;28;47353;-49
2022/02/09 07:28:45;;;;;;;;;32.50;29.00;;;;;7.02;61.44;102349.44;5040802;28;45173;-47
2022/02/09 07:31:12;;;;;;;;;26.50;26.50;;;;;7.02;61.63;102352.06;5040406;28;45643;-48
2022/02/09 07:33:39;;;;;;;;;27.00;23.00;;;;;7.01;61.21;102350.28;5040551;28;45517;-43
2022/02/09 07:36:06;;;;;;;;;33.75;30.00;;;;;6.98;61.51;102347.56;5041061;28;46343;-48
2022/02/09 07:38:32;;;;;;;;;34.50;29.25;;;;;7.00;61.50;102352.00;5039503;28;45189;-43
2022/02/09 07:40:59;;;;;;;;;31.00;27.25;;;;;6.98;61.27;102340.63;5040601;28;45252;-45
2022/02/09 07:44:02;;;;;;;;;31.75;28.75;;;;;7.00;61.44;102351.13;5040734;28;45271;-48
2022/02/09 07:46:54;;;;;;;;;34.50;29.50;;;;;6.99;61.55;102350.25;5035338;28;47136;-49
2022/02/09 07:49:25;;;;;;;;;30.75;26.75;;;;;6.98;61.70;102347.56;5040715;28;45445;-46
2022/02/09 07:52:19;;;;;;;;;27.00;24.00;;;;;6.97;61.56;102346.69;5039115;28;45537;-45
2022/02/09 07:54:44;;;;;;;;;27.50;25.00;;;;;6.97;61.59;102340.59;5039002;28;45836;-45
2022/02/09 07:57:10;;;;;;;;;34.00;28.75;;;;;6.91;61.38;102335.22;5040620;28;45342;-46
2022/02/09 07:59:35;;;;;;;;;25.75;23.75;;;;;6.97;61.48;102341.47;5040250;28;45566;-44
2022/02/09 08:02:00;;;;;;;;;31.50;28.75;;;;;6.95;61.31;102337.94;5040769;28;45245;-45
2022/02/09 08:04:26;;;;;;;;;29.00;26.50;;;;;6.97;61.58;102338.00;5039241;28;45359;-48
2022/02/09 08:06:52;;;;;;;;;29.75;29.25;;;;;6.95;61.46;102329.22;5040136;28;46121;-49
2022/02/09 08:09:27;;;;;;;;;38.00;31.25;;;;;6.98;61.66;102331.91;5038362;28;45378;-48
2022/02/09 08:12:02;;;;;;;;;35.00;33.75;;;;;6.99;61.60;102339.78;5039905;28;45482;-47
2022/02/09 08:28:48;;;;;;;;;36.50;33.75;;;;;7.07;61.76;102334.75;5039771;28;46107;-45
2022/02/09 08:33:06;;;;;;;;;34.00;29.00;;;;;7.13;61.45;102337.53;5040169;28;45301;-47
2022/02/09 08:35:33;;;;;;;;;30.25;28.25;;;;;7.15;61.57;102333.22;5038715;28;45590;-50
2022/02/09 08:37:59;;;;;;;;;32.50;28.75;;;;;7.18;61.57;102323.69;5039520;28;45754;-57
2022/02/09 08:40:26;;;;;;;;;33.75;33.00;;;;;7.21;61.55;102322.03;5039767;28;45512;-50
2022/02/09 08:42:53;;;;;;;;;31.00;28.75;;;;;7.23;61.76;102324.69;5039497;28;45520;-47
2022/02/09 08:45:19;;;;;;;;;37.50;30.00;;;;;7.27;61.63;102319.59;5039930;28;45411;-48
2022/02/09 08:47:44;;;;;;;;;13.00;12.00;;;;;7.30;61.83;102324.00;5021591;28;45901;-49
2022/02/09 08:50:10;;;;;;;;;42.25;35.00;;;;;7.35;61.83;102316.28;5039778;28;45461;-51
2022/02/09 08:52:35;;;;;;;;;37.75;33.00;;;;;7.37;61.69;102323.31;5039493;28;45402;-49
2022/02/09 08:55:01;;;;;;;;;38.50;35.00;;;;;7.40;61.85;102309.41;5055105;28;47098;-47
2022/02/09 08:57:28;;;;;;;;;42.00;33.75;;;;;7.43;61.90;102304.25;5039520;28;45223;-50
2022/02/09 08:59:54;;;;;;;;;36.50;35.50;;;;;7.49;61.79;102305.28;5039148;28;45389;-45
2022/02/09 09:02:23;;;;;;;;;39.75;35.75;;;;;7.51;61.78;102296.56;5038622;28;45264;-47
2022/02/09 09:04:55;;;;;;;;;33.25;28.25;;;;;7.59;61.92;102302.88;5039276;28;45471;-45
2022/02/09 09:07:28;;;;;;;;;37.00;33.50;;;;;7.62;61.76;102301.22;5039261;28;47018;-47
2022/02/09 09:10:18;;;;;;;;;38.75;36.00;;;;;7.71;61.72;102305.78;5031004;28;45323;-47
2022/02/09 09:58:03;;;;;;;;;33.00;30.25;;;;;8.79;61.80;102267.78;5033652;28;45347;-51
2022/02/09 10:04:40;;;;;;;;;32.00;26.00;;;;;9.70;61.50;102258.72;5038723;28;45392;-47
2022/02/09 10:33:12;;;;;;;;;42.25;34.00;;;;;10.89;61.44;102265.34;5035517;28;45336;-44
2022/02/09 10:35:43;;;;;;;;;42.25;34.00;;;;;11.01;61.08;102264.56;5038040;28;45323;-44
2022/02/09 10:38:22;;;;;;;;;41.00;34.75;;;;;11.15;61.10;102264.66;5036722;28;45506;-50
2022/02/09 10:40:51;;;;;;;;;33.00;32.00;;;;;11.28;60.75;102267.38;5038134;28;45330;-44
2022/02/09 10:43:33;;;;;;;;;35.25;32.50;;;;;11.36;61.14;102263.06;5038052;28;45491;-46
2022/02/09 10:46:12;;;;;;;;;37.75;32.00;;;;;11.47;61.18;102256.13;5036835;28;46416;-47
2022/02/09 10:48:57;;;;;;;;;33.00;29.50;;;;;11.55;61.06;102243.00;5038513;28;45406;-50
2022/02/09 10:54:26;;;;;;;;;32.75;29.00;;;;;11.80;60.71;102253.69;5041015;28;45312;-49
2022/02/09 10:56:53;;;;;;;;;23.00;20.25;;;;;11.92;61.03;102247.56;5039844;28;48298;-45
2022/02/09 10:59:23;;;;;;;;;34.00;30.25;;;;;12.01;60.76;102245.00;5041154;28;45382;-46
2022/02/09 11:01:50;;;;;;;;;27.25;26.00;;;;;12.12;60.77;102238.00;5039919;28;45387;-45
2022/02/09 11:04:16;;;;;;;;;30.75;27.75;;;;;12.22;60.63;102236.28;5041240;28;45486;-48
2022/02/09 11:06:44;;;;;;;;;28.75;27.50;;;;;12.32;60.57;102229.28;5040740;28;46130;-46
2022/02/09 11:09:12;;;;;;;;;24.00;23.50;;;;;12.42;60.82;102227.56;5034799;28;45555;-48
2022/02/09 11:11:41;;;;;;;;;30.00;25.00;;;;;12.52;60.60;102230.19;5038117;28;45452;-47
2022/02/09 11:14:11;;;;;;;;;32.50;28.75;;;;;12.62;60.57;102220.53;5040928;28;45541;-47
2022/02/09 11:16:37;;;;;;;;;26.75;22.75;;;;;12.74;60.29;102219.69;5040806;28;45334;-47
2022/02/09 11:19:03;;;;;;;;;26.75;26.50;;;;;12.83;60.42;102224.94;5040984;28;45366;-44
2022/02/09 11:21:36;;;;;;;;;23.50;23.50;;;;;12.96;60.12;102212.63;5040867;28;45495;-43
2022/02/09 11:24:23;;;;;;;;;24.75;23.25;;;;;13.08;59.78;102210.84;5038955;28;45501;-44
2022/02/09 11:32:06;;;;;;;;;25.00;24.25;;;;;13.41;59.64;102206.41;5040715;28;45443;-45
2022/02/09 11:34:57;;;;;;;;;32.00;29.75;;;;;13.51;59.63;102207.28;5040917;28;45505;-46
2022/02/09 11:37:57;;;;;;;;;30.25;30.00;;;;;13.57;59.84;102196.69;5035429;28;46345;-45
2022/02/09 11:44:19;;;;;;;;;34.00;30.00;;;;;13.76;59.29;102185.19;5035112;28;45571;-46
2022/02/09 11:47:01;;;;;;;;;34.50;31.50;;;;;13.85;59.54;102186.91;5038348;28;45406;-47
2022/02/09 12:09:41;;;;;;;;;36.00;30.00;;;;;14.59;58.82;102164.38;5036443;28;45426;-49
2022/02/09 12:12:13;;;;;;;;;35.25;32.00;;;;;14.71;58.80;102168.72;5037107;28;46320;-50
2022/02/09 12:14:48;;;;;;;;;33.75;30.00;;;;;14.83;58.50;102165.09;5042100;28;45546;-46
2022/02/09 12:17:25;;;;;;;;;29.50;26.25;;;;;14.95;58.79;102149.09;5038309;28;45488;-44
2022/02/09 12:19:59;;;;;;;;;32.50;28.00;;;;;15.11;58.86;102147.16;5039041;28;45495;-48
2022/02/09 12:22:26;;;;;;;;;32.25;29.75;;;;;15.31;58.86;102144.28;5045634;28;46353;-46
2022/02/09 12:24:58;;;;;;;;;32.25;29.25;;;;;15.52;59.34;102142.28;5034613;28;45220;-47
2022/02/09 12:27:24;;;;;;;;;32.25;29.25;;;;;15.72;59.01;102149.97;5040981;28;45598;-46
2022/02/09 12:30:04;;;;;;;;;26.50;24.25;;;;;15.93;59.28;102141.72;5038656;28;45322;-47
2022/02/09 12:32:29;;;;;;;;;27.25;24.50;;;;;16.15;59.30;102137.91;5035237;28;47019;-47
2022/02/09 12:34:55;;;;;;;;;32.00;28.75;;;;;16.30;58.88;102136.78;5038630;28;45243;-47
2022/02/09 12:37:21;;;;;;;;;26.75;25.75;;;;;16.43;59.03;102133.03;5040924;28;45421;-47
2022/02/09 12:39:58;;;;;;;;;30.25;26.50;;;;;16.56;58.75;102131.94;5044479;28;45451;-47
2022/02/09 12:42:30;;;;;;;;;25.75;24.75;;;;;16.71;58.57;102129.91;5042394;28;46413;-48
2022/02/09 12:45:04;;;;;;;;;23.25;21.50;;;;;16.83;58.58;102120.84;5038782;28;45200;-46
2022/02/09 12:47:32;;;;;;;;;23.75;21.00;;;;;16.93;58.39;102119.81;5043400;28;45227;-48
2022/02/09 12:49:58;;;;;;;;;26.75;20.00;;;;;17.01;58.06;102115.22;5038436;28;45432;-48
2022/02/09 12:52:30;;;;;;;;;25.25;20.50;;;;;17.07;57.66;102111.59;5036530;28;46459;-48
2022/02/09 12:55:08;;;;;;;;;24.75;21.75;;;;;17.12;57.52;102112.34;5032733;28;45446;-48
2022/02/09 12:57:39;;;;;;;;;19.50;18.75;;;;;17.16;57.59;102116.69;5038072;28;45453;-47
2022/02/09 13:00:20;;;;;;;;;24.00;22.00;;;;;17.21;57.18;102101.53;5038622;28;45430;-46
2022/02/09 13:02:46;;;;;;;;;22.75;20.75;;;;;17.21;57.07;102084.75;5038702;28;46326;-43
2022/02/09 13:05:12;;;;;;;;;17.25;15.50;;;;;17.33;57.11;102096.88;5054467;28;45768;-43
2022/02/09 13:07:38;;;;;;;;;20.00;16.75;;;;;17.34;57.13;102093.31;5037830;28;45310;-46
2022/02/09 13:10:04;;;;;;;;;20.50;19.25;;;;;17.39;56.73;102094.09;5036261;28;45556;-43
2022/02/09 13:12:30;;;;;;;;;24.00;18.00;;;;;17.42;57.04;102086.06;5015827;28;48333;-46
2022/02/09 13:15:06;;;;;;;;;24.50;22.25;;;;;17.47;56.38;102091.25;5038897;28;45450;-43
2022/02/09 14:34:52;;;;;;;;;16.75;15.25;;;;;18.30;54.22;102006.88;5048852;28;45362;-51
2022/02/09 14:58:26;;;;;;;;;14.25;13.25;;;;;18.54;53.81;101984.97;5023836;28;45260;-50
2022/02/09 15:11:17;;;;;;;;;21.00;20.50;;;;;18.58;53.04;101986.59;5041562;28;45404;-49
2022/02/09 15:22:01;;;;;;;;;14.00;13.50;;;;;18.50;53.18;101963.75;5051847;28;45326;-46
2022/02/09 15:24:34;;;;;;;;;14.75;14.75;;;;;18.51;53.28;101969.94;5031528;28;47070;-53
2022/02/09 15:27:01;;;;;;;;;16.25;13.75;;;;;18.49;53.17;101959.34;5038885;28;45766;-52
2022/02/09 15:29:27;;;;;;;;;16.00;14.00;;;;;18.49;52.99;101963.81;5053322;28;45286;-49
2022/02/09 15:31:56;;;;;;;;;14.00;14.00;;;;;18.48;53.00;101965.59;5054934;28;45248;-42
2022/02/09 15:34:32;;;;;;;;;22.00;19.00;;;;;18.47;53.18;101965.63;5051417;28;45276;-54
2022/02/09 15:39:48;;;;;;;;;26.50;19.00;;;;;18.42;53.24;101960.44;5047449;28;45402;-51
2022/02/09 16:23:22;;;;;;;;;13.25;12.25;;;;;17.49;52.60;101917.59;5036929;28;45447;-42
2022/02/09 16:44:41;;;;;;;;;28.25;19.75;;;;;16.82;52.58;101901.44;5039108;28;45240;-46
2022/02/09 16:47:26;;;;;;;;;22.25;20.50;;;;;16.76;52.55;101917.50;5041705;28;45326;-47
2022/02/09 16:50:13;;;;;;;;;32.50;30.50;;;;;16.68;52.58;101912.34;5037251;28;45454;-47
2022/02/09 16:52:52;;;;;;;;;25.75;21.25;;;;;16.57;52.63;101905.47;5033959;28;45351;-47
2022/02/09 17:19:26;;;;;;;;;17.75;16.75;;;;;15.76;52.81;101897.28;5040270;28;45445;-47
2022/02/09 17:21:52;;;;;;;;;20.75;15.75;;;;;15.71;52.72;101899.09;5052114;28;46149;-45
2022/02/09 17:24:17;;;;;;;;;19.75;18.25;;;;;15.64;52.83;101897.50;5032110;28;45464;-43
2022/02/09 17:26:43;;;;;;;;;25.50;24.25;;;;;15.57;52.88;101892.28;5040394;28;45239;-43
2022/02/09 17:29:09;;;;;;;;;27.50;26.75;;;;;15.52;53.04;101890.59;5045732;28;45278;-44
2022/02/09 17:58:08;;;;;;;;;27.50;25.00;;;;;14.84;52.58;101889.88;5040420;28;45587;-42
2022/02/09 18:00:34;;;;;;;;;28.00;26.25;;;;;14.79;52.95;101892.56;5036847;28;45253;-46
2022/02/09 18:02:59;;;;;;;;;28.25;27.50;;;;;14.74;52.89;101889.13;5039402;28;45493;-42
2022/02/09 18:08:19;;;;;;;;;28.50;25.50;;;;;14.63;52.62;101902.44;5027389;28;45468;-43
2022/02/09 18:11:06;;;;;;;;;37.00;28.75;;;;;14.58;52.85;101898.97;5034287;28;45461;-48
2022/02/09 18:31:38;;;;;;;;;49.50;41.50;;;;;14.19;53.40;101890.63;5038562;28;45479;-44
2022/02/09 18:34:22;;;;;;;;;32.00;30.50;;;;;14.15;53.21;101891.56;5038978;28;45458;-45
2022/02/09 18:59:21;;;;;;;;;35.25;30.00;;;;;13.85;53.38;101879.50;5038718;28;45355;-42
2022/02/09 19:01:33;;;;;;;;;29.75;26.50;;;;;13.80;53.24;101877.81;5027209;28;45553;-43
2022/02/09 19:04:00;;;;;;;;;26.00;23.75;;;;;13.77;53.17;101874.31;5047415;28;45314;-40
2022/02/09 19:06:38;;;;;;;;;30.00;26.25;;;;;13.72;53.38;101874.38;5048740;28;47232;-43
2022/02/09 19:48:27;;;;;;;;;50.75;42.00;;;;;13.24;53.88;101835.13;5041551;28;45326;-46
2022/02/09 19:56:06;;;;;;;;;55.75;45.75;;;;;13.20;54.25;101843.94;5036782;28;45961;-45
2022/02/09 19:58:52;;;;;;;;;51.00;42.50;;;;;13.20;53.80;101843.09;5028590;28;46284;-44
2022/02/09 20:01:19;;;;;;;;;39.00;35.50;;;;;13.15;54.09;101830.78;5054924;28;45375;-43
2022/02/09 20:03:45;;;;;;;;;45.25;35.00;;;;;13.14;53.84;101833.44;5043694;28;45314;-46
2022/02/09 20:06:11;;;;;;;;;52.75;42.00;;;;;13.13;53.71;101836.97;5044770;28;45360;-45
2022/02/09 20:08:37;;;;;;;;;53.75;44.00;;;;;13.10;53.81;101831.72;5040470;28;45349;-43
2022/02/09 20:11:10;;;;;;;;;51.50;39.25;;;;;13.07;54.35;101826.44;5038303;28;45232;-42
2022/02/09 20:13:36;;;;;;;;;50.00;39.50;;;;;13.04;53.70;101832.63;5041537;28;45338;-43
2022/02/09 20:16:03;;;;;;;;;50.00;40.00;;;;;12.99;54.21;101819.47;5041245;28;45453;-47
2022/02/09 20:18:31;;;;;;;;;44.75;36.75;;;;;12.99;53.76;101829.13;5053247;28;45366;-43
2022/02/09 20:20:57;;;;;;;;;47.50;39.00;;;;;12.93;54.15;101816.88;5041797;28;45402;-42
2022/02/09 20:23:22;;;;;;;;;48.50;39.75;;;;;12.92;54.24;101814.25;5053498;28;45535;-42
2022/02/09 20:25:48;;;;;;;;;67.00;52.00;;;;;12.90;53.97;101819.53;5047584;28;45512;-41
2022/02/09 20:28:14;;;;;;;;;82.67;72.67;;;;;12.88;54.47;101823.97;5048567;28;46176;-43
2022/02/09 20:30:45;;;;;;;;;73.75;62.25;;;;;12.86;53.89;101824.84;5050414;28;45384;-43
2022/02/09 20:33:15;;;;;;;;;52.00;43.50;;;;;12.81;53.93;101812.53;5054345;28;45304;-42
2022/02/09 20:35:41;;;;;;;;;60.00;49.00;;;;;12.77;54.03;101807.31;5041073;28;45496;-43
2022/02/09 20:38:14;;;;;;;;;64.50;48.75;;;;;12.76;54.38;101811.72;5054389;28;46046;-42
2022/02/09 20:40:49;;;;;;;;;59.25;46.25;;;;;12.73;54.13;101816.13;5060692;27;45409;-42
2022/02/09 20:43:16;;;;;;;;;65.75;52.25;;;;;12.68;54.09;101819.66;5061039;28;45414;-46
2022/02/09 20:45:51;;;;;;;;;62.25;50.25;;;;;12.65;54.26;101811.78;5059904;28;45418;-42
2022/02/09 20:48:22;;;;;;;;;63.75;50.75;;;;;12.59;54.32;101803.91;5060894;28;45694;-47
2022/02/09 20:50:47;;;;;;;;;66.00;52.75;;;;;12.58;54.24;101806.53;5060711;28;45476;-44
2022/02/09 20:53:14;;;;;;;;;61.75;49.25;;;;;12.55;54.55;101812.69;5050673;28;45402;-43
2022/02/09 20:55:40;;;;;;;;;65.00;51.75;;;;;12.51;54.49;101810.97;5034576;28;45527;-43
2022/02/09 20:58:06;;;;;;;;;59.50;48.50;;;;;12.47;54.64;101815.38;5039794;28;45487;-44
2022/02/09 21:01:17;;;;;;;;;70.50;54.25;;;;;12.45;54.53;101818.91;5038072;28;45632;-43
2022/02/09 21:03:43;;;;;;;;;73.00;58.67;;;;;12.41;54.43;101825.94;5047990;28;45358;-46
2022/02/09 21:09:14;;;;;;;;;65.75;50.25;;;;;12.32;54.57;101831.28;5042485;28;45458;-43
2022/02/09 21:14:29;;;;;;;;;65.25;52.25;;;;;12.25;54.57;101832.19;5040508;28;45384;-44
2022/02/09 21:17:17;;;;;;;;;61.00;47.75;;;;;12.20;54.58;101832.22;5040498;28;45218;-44
2022/02/09 21:20:14;;;;;;;;;59.25;46.00;;;;;12.15;54.51;101826.94;5040124;28;46222;-45
2022/02/09 21:33:30;;;;;;;;;55.75;45.75;;;;;11.93;54.81;101822.59;5040389;28;45290;-45
2022/02/09 21:56:55;;;;;;;;;63.00;50.00;;;;;11.54;54.81;101810.34;5040001;28;45304;-42
2022/02/09 21:59:41;;;;;;;;;58.25;48.00;;;;;11.49;54.78;101819.16;5039755;28;45330;-42
2022/02/09 22:26:54;;;;;;;;;65.00;50.25;;;;;10.98;55.62;101813.88;5039618;28;45248;-43
2022/02/09 22:34:49;;;;;;;;;63.00;50.75;;;;;10.83;55.56;101810.34;5039487;28;46209;-44
2022/02/09 22:50:53;;;;;;;;;61.00;50.00;;;;;10.65;55.59;101779.63;5042932;28;45178;-44
2022/02/09 22:56:03;;;;;;;;;62.75;50.00;;;;;10.65;55.76;101782.25;5042530;28;45696;-44
2022/02/09 22:58:28;;;;;;;;;64.75;48.25;;;;;10.65;55.84;101778.75;5042637;28;45276;-45
2022/02/09 23:14:03;;;;;;;;;74.75;59.50;;;;;10.66;56.12;101770.88;5042465;28;45315;-42
2022/02/09 23:22:27;;;;;;;;;61.25;48.00;;;;;10.71;56.22;101781.41;5042380;28;45216;-44
2022/02/09 23:57:22;;;;;;;;;55.25;45.25;;;;;10.80;56.54;101763.00;5041797;28;45440;-44
